createdAt,value
2022-11-26T00:00:57.573Z,99.99
2022-11-26T00:01:57.554Z,99.99
2022-11-26T00:02:57.605Z,99.99
2022-11-26T00:03:57.455Z,99.99
2022-11-26T00:04:57.389Z,99.99
2022-11-26T00:05:57.338Z,99.99
2022-11-26T00:06:57.331Z,99.99
2022-11-26T00:07:57.346Z,99.99
2022-11-26T00:08:57.200Z,99.99
2022-11-26T00:09:57.151Z,99.99
2022-11-26T00:10:57.106Z,99.99
2022-11-26T00:11:57.058Z,99.99
2022-11-26T00:12:57.037Z,99.99
2022-11-26T00:13:56.962Z,99.99
2022-11-26T00:14:56.925Z,99.99
2022-11-26T00:15:56.867Z,99.99
2022-11-26T00:16:56.853Z,99.99
2022-11-26T00:17:56.772Z,99.99
2022-11-26T00:18:56.746Z,99.99
2022-11-26T00:19:56.684Z,99.99
2022-11-26T00:20:56.634Z,99.99
2022-11-26T00:21:56.583Z,99.99
2022-11-26T00:22:56.536Z,99.99
2022-11-26T00:23:56.490Z,99.99
2022-11-26T00:24:56.465Z,99.99
2022-11-26T00:25:56.397Z,99.99
2022-11-26T00:26:56.352Z,99.99
2022-11-26T00:27:56.403Z,99.99
2022-11-26T00:28:56.258Z,99.99
2022-11-26T00:29:56.204Z,99.99
2022-11-26T00:30:56.185Z,99.99
2022-11-26T00:31:56.222Z,99.99
2022-11-26T00:32:56.066Z,99.99
2022-11-26T00:33:56.023Z,99.99
2022-11-26T00:34:55.974Z,99.99
2022-11-26T00:35:55.964Z,99.99
2022-11-26T00:36:56.067Z,99.99
2022-11-26T00:37:55.830Z,99.99
2022-11-26T00:38:55.826Z,99.99
2022-11-26T00:39:55.739Z,99.99
2022-11-26T00:40:55.695Z,99.99
2022-11-26T00:41:55.646Z,99.99
2022-11-26T00:43:01.269Z,99.99
2022-11-26T00:43:55.550Z,99.99
2022-11-26T00:44:55.508Z,99.99
2022-11-26T00:45:55.509Z,99.99
2022-11-26T00:46:55.433Z,99.99
2022-11-26T00:47:55.388Z,99.99
2022-11-26T00:48:55.317Z,99.99
2022-11-26T00:49:55.269Z,99.99
2022-11-26T00:50:55.252Z,99.99
2022-11-26T00:51:55.215Z,99.99
2022-11-26T00:52:55.137Z,99.99
2022-11-26T00:53:55.084Z,99.99
2022-11-26T00:54:55.049Z,99.99
2022-11-26T00:55:54.992Z,99.99
2022-11-26T00:56:54.968Z,99.99
2022-11-26T00:57:54.896Z,99.99
2022-11-26T00:58:54.849Z,99.99
2022-11-26T00:59:54.811Z,99.99
2022-11-26T01:00:54.847Z,99.99
2022-11-26T01:01:54.792Z,99.99
2022-11-26T01:02:54.685Z,99.99
2022-11-26T01:03:54.610Z,99.99
2022-11-26T01:04:54.566Z,99.99
2022-11-26T01:05:54.520Z,99.99
2022-11-26T01:06:54.474Z,99.99
2022-11-26T01:07:54.500Z,99.99
2022-11-26T01:08:54.414Z,99.99
2022-11-26T01:09:54.331Z,99.99
2022-11-26T01:10:54.291Z,99.99
2022-11-26T01:11:54.654Z,99.99
2022-11-26T01:12:54.206Z,99.99
2022-11-26T01:13:54.146Z,99.99
2022-11-26T01:14:54.123Z,99.99
2022-11-26T01:15:54.089Z,99.99
2022-11-26T01:16:54.095Z,99.99
2022-11-26T01:17:53.954Z,99.99
2022-11-26T01:18:53.915Z,99.99
2022-11-26T01:19:53.883Z,99.99
2022-11-26T01:20:53.818Z,99.99
2022-11-26T01:21:53.777Z,99.99
2022-11-26T01:22:53.728Z,99.99
2022-11-26T01:23:53.674Z,99.99
2022-11-26T01:24:53.632Z,99.99
2022-11-26T01:25:53.610Z,99.99
2022-11-26T01:26:53.533Z,99.99
2022-11-26T01:27:53.487Z,99.99
2022-11-26T01:28:53.459Z,99.99
2022-11-26T01:29:53.396Z,99.99
2022-11-26T01:30:53.352Z,99.99
2022-11-26T01:31:53.352Z,99.99
2022-11-26T01:32:53.255Z,99.99
2022-11-26T01:33:53.205Z,99.99
2022-11-26T01:34:53.194Z,99.99
2022-11-26T01:35:53.114Z,99.99
2022-11-26T01:36:53.067Z,99.99
2022-11-26T01:37:53.018Z,99.99
2022-11-26T01:38:52.974Z,99.99
2022-11-26T01:39:52.933Z,99.99
2022-11-26T01:40:52.910Z,99.99
2022-11-26T01:41:52.838Z,99.99
2022-11-26T01:42:52.787Z,99.99
2022-11-26T01:43:52.769Z,99.99
2022-11-26T01:44:52.694Z,99.99
2022-11-26T01:45:52.676Z,99.99
2022-11-26T01:46:52.612Z,99.99
2022-11-26T01:47:52.553Z,99.99
2022-11-26T01:48:52.523Z,99.99
2022-11-26T01:49:52.465Z,99.99
2022-11-26T01:50:52.413Z,99.99
2022-11-26T01:51:52.369Z,99.99
2022-11-26T01:52:52.323Z,99.99
2022-11-26T01:53:52.274Z,99.99
2022-11-26T01:54:52.254Z,99.99
2022-11-26T01:55:52.219Z,99.99
2022-11-26T01:56:52.139Z,99.99
2022-11-26T01:57:52.103Z,99.99
2022-11-26T01:58:52.040Z,99.99
2022-11-26T01:59:51.991Z,99.99
2022-11-26T02:00:51.966Z,99.99
2022-11-26T02:01:51.950Z,99.99
2022-11-26T02:02:51.852Z,99.99
2022-11-26T02:03:51.836Z,99.99
2022-11-26T02:04:51.756Z,99.99
2022-11-26T02:05:51.715Z,99.99
2022-11-26T02:06:51.664Z,99.99
2022-11-26T02:07:51.692Z,99.99
2022-11-26T02:08:51.564Z,99.99
2022-11-26T02:09:51.564Z,99.99
2022-11-26T02:10:51.473Z,99.99
2022-11-26T02:11:51.428Z,99.99
2022-11-26T02:12:51.381Z,99.99
2022-11-26T02:13:51.331Z,99.99
2022-11-26T02:14:51.295Z,99.99
2022-11-26T02:15:51.274Z,99.99
2022-11-26T02:16:51.263Z,99.99
2022-11-26T02:17:51.147Z,99.99
2022-11-26T02:18:51.106Z,99.99
2022-11-26T02:19:51.052Z,99.99
2022-11-26T02:20:51.008Z,99.99
2022-11-26T02:21:50.989Z,99.99
2022-11-26T02:22:50.912Z,99.99
2022-11-26T02:23:50.870Z,99.99
2022-11-26T02:24:50.816Z,99.99
2022-11-26T02:25:50.797Z,99.99
2022-11-26T02:26:50.737Z,99.99
2022-11-26T02:27:50.676Z,99.99
2022-11-26T02:28:50.629Z,99.99
2022-11-26T02:29:50.598Z,99.99
2022-11-26T02:30:50.541Z,99.99
2022-11-26T02:31:50.544Z,99.99
2022-11-26T02:32:50.448Z,99.99
2022-11-26T02:33:50.399Z,99.99
2022-11-26T02:34:50.347Z,99.99
2022-11-26T02:35:50.332Z,99.99
2022-11-26T02:36:50.284Z,99.99
2022-11-26T02:37:50.210Z,99.99
2022-11-26T02:38:50.166Z,99.99
2022-11-26T02:39:50.117Z,99.99
2022-11-26T02:40:50.070Z,99.99
2022-11-26T02:41:50.017Z,99.99
2022-11-26T02:42:50.023Z,99.99
2022-11-26T02:43:49.939Z,99.99
2022-11-26T02:44:49.886Z,99.99
2022-11-26T02:45:49.883Z,99.99
2022-11-26T02:46:49.792Z,99.99
2022-11-26T02:47:49.747Z,99.99
2022-11-26T02:48:49.718Z,99.99
2022-11-26T02:49:49.657Z,99.99
2022-11-26T02:50:49.601Z,99.99
2022-11-26T02:51:49.586Z,99.99
2022-11-26T02:52:49.513Z,99.99
2022-11-26T02:53:49.464Z,99.99
2022-11-26T02:54:49.424Z,99.99
2022-11-26T02:55:49.372Z,99.99
2022-11-26T02:56:49.321Z,99.99
2022-11-26T02:57:49.306Z,99.99
2022-11-26T02:58:49.230Z,99.99
2022-11-26T02:59:49.181Z,99.99
2022-11-26T03:00:49.175Z,99.99
2022-11-26T03:01:49.089Z,99.99
2022-11-26T03:02:49.064Z,99.99
2022-11-26T03:03:49.052Z,99.99
2022-11-26T03:04:48.948Z,99.99
2022-11-26T03:05:48.903Z,99.99
2022-11-26T03:06:48.854Z,99.99
2022-11-26T03:07:48.922Z,99.99
2022-11-26T03:08:48.761Z,99.99
2022-11-26T03:09:48.712Z,99.99
2022-11-26T03:10:48.668Z,99.99
2022-11-26T03:11:48.694Z,99.99
2022-11-26T03:12:48.576Z,99.99
2022-11-26T03:13:48.523Z,99.99
2022-11-26T03:14:48.480Z,99.99
2022-11-26T03:15:48.429Z,99.99
2022-11-26T03:16:48.423Z,99.99
2022-11-26T03:17:48.377Z,99.99
2022-11-26T03:18:48.293Z,99.99
2022-11-26T03:19:48.243Z,99.99
2022-11-26T03:20:51.048Z,99.99
2022-11-26T03:21:48.148Z,99.99
2022-11-26T03:22:48.106Z,99.99
2022-11-26T03:23:48.086Z,99.99
2022-11-26T03:24:48.010Z,99.99
2022-11-26T03:25:47.966Z,99.99
2022-11-26T03:26:47.917Z,99.99
2022-11-26T03:27:47.871Z,99.99
2022-11-26T03:28:47.855Z,99.99
2022-11-26T03:29:47.774Z,99.99
2022-11-26T03:30:47.732Z,99.99
2022-11-26T03:31:47.758Z,99.99
2022-11-26T03:32:47.644Z,99.99
2022-11-26T03:33:47.585Z,99.99
2022-11-26T03:34:47.720Z,99.99
2022-11-26T03:35:47.494Z,99.99
2022-11-26T03:36:47.447Z,99.99
2022-11-26T03:37:47.404Z,99.99
2022-11-26T03:38:47.364Z,99.99
2022-11-26T03:39:47.309Z,99.99
2022-11-26T03:40:47.281Z,99.99
2022-11-26T03:41:47.217Z,99.99
2022-11-26T03:42:47.171Z,99.99
2022-11-26T03:43:47.123Z,99.99
2022-11-26T03:44:47.072Z,99.99
2022-11-26T03:45:47.062Z,99.99
2022-11-26T03:46:47.170Z,99.99
2022-11-26T03:47:46.939Z,99.99
2022-11-26T03:48:46.885Z,99.99
2022-11-26T03:49:46.840Z,99.99
2022-11-26T03:50:46.829Z,99.99
2022-11-26T03:51:46.745Z,99.99
2022-11-26T03:52:46.817Z,99.99
2022-11-26T03:53:46.652Z,99.99
2022-11-26T03:54:46.604Z,99.99
2022-11-26T03:55:46.562Z,99.99
2022-11-26T03:56:46.539Z,99.99
2022-11-26T03:57:46.461Z,99.99
2022-11-26T03:58:46.416Z,99.99
2022-11-26T03:59:46.367Z,99.99
2022-11-26T04:00:46.328Z,99.99
2022-11-26T04:01:46.352Z,99.99
2022-11-26T04:02:46.276Z,99.99
2022-11-26T04:03:46.183Z,99.99
2022-11-26T04:04:46.138Z,99.99
2022-11-26T04:05:46.086Z,99.99
2022-11-26T04:06:46.041Z,99.99
2022-11-26T04:07:46.046Z,99.99
2022-11-26T04:08:45.968Z,99.99
2022-11-26T04:09:45.895Z,99.99
2022-11-26T04:10:45.852Z,99.99
2022-11-26T04:11:45.831Z,99.99
2022-11-26T04:12:45.782Z,99.99
2022-11-26T04:13:45.708Z,99.99
2022-11-26T04:14:45.667Z,99.99
2022-11-26T04:15:45.618Z,99.99
2022-11-26T04:16:45.611Z,99.99
2022-11-26T04:17:45.561Z,99.99
2022-11-26T04:18:45.479Z,99.99
2022-11-26T04:19:45.432Z,99.99
2022-11-26T04:20:50.012Z,99.99
2022-11-26T04:21:45.331Z,99.99
2022-11-26T04:22:45.285Z,99.99
2022-11-26T04:23:45.255Z,99.99
2022-11-26T04:24:45.191Z,99.99
2022-11-26T04:25:45.143Z,99.99
2022-11-26T04:26:45.098Z,99.99
2022-11-26T04:27:45.051Z,99.99
2022-11-26T04:28:45.002Z,99.99
2022-11-26T04:29:44.988Z,99.99
2022-11-26T04:30:44.906Z,99.99
2022-11-26T04:31:44.918Z,99.99
2022-11-26T04:32:44.812Z,99.99
2022-11-26T04:33:44.766Z,99.99
2022-11-26T04:34:44.719Z,99.99
2022-11-26T04:35:44.695Z,99.99
2022-11-26T04:36:44.627Z,99.99
2022-11-26T04:37:44.580Z,99.99
2022-11-26T04:38:44.529Z,99.99
2022-11-26T04:39:44.527Z,99.99
2022-11-26T04:40:44.432Z,99.99
2022-11-26T04:41:44.386Z,99.99
2022-11-26T04:42:44.344Z,99.99
2022-11-26T04:43:44.291Z,99.99
2022-11-26T04:44:44.243Z,99.99
2022-11-26T04:45:44.385Z,99.99
2022-11-26T04:46:44.150Z,99.99
2022-11-26T04:47:44.103Z,99.99
2022-11-26T04:48:44.082Z,99.99
2022-11-26T04:49:44.025Z,99.99
2022-11-26T04:50:43.957Z,99.99
2022-11-26T04:51:43.941Z,99.99
2022-11-26T04:52:43.859Z,99.99
2022-11-26T04:53:43.815Z,99.99
2022-11-26T04:54:43.770Z,99.99
2022-11-26T04:55:43.722Z,99.99
2022-11-26T04:56:43.671Z,99.99
2022-11-26T04:57:43.672Z,99.99
2022-11-26T04:58:43.576Z,99.99
2022-11-26T04:59:43.536Z,99.99
2022-11-26T05:00:43.568Z,99.99
2022-11-26T05:01:43.598Z,99.99
2022-11-26T05:02:43.415Z,99.99
2022-11-26T05:03:43.366Z,99.99
2022-11-26T05:04:43.296Z,99.99
2022-11-26T05:05:43.246Z,99.99
2022-11-26T05:06:43.198Z,99.99
2022-11-26T05:07:43.240Z,99.99
2022-11-26T05:08:43.098Z,99.99
2022-11-26T05:09:43.081Z,99.99
2022-11-26T05:10:43.013Z,99.99
2022-11-26T05:11:42.958Z,99.99
2022-11-26T05:12:42.910Z,99.99
2022-11-26T05:13:42.868Z,99.99
2022-11-26T05:14:42.817Z,99.99
2022-11-26T05:15:42.789Z,99.99
2022-11-26T05:16:42.775Z,99.99
2022-11-26T05:17:42.676Z,99.99
2022-11-26T05:18:42.624Z,99.99
2022-11-26T05:19:42.583Z,99.99
2022-11-26T05:20:42.546Z,99.99
2022-11-26T05:21:42.486Z,99.99
2022-11-26T05:22:42.439Z,99.99
2022-11-26T05:23:42.393Z,99.99
2022-11-26T05:24:42.341Z,99.99
2022-11-26T05:25:42.293Z,99.99
2022-11-26T05:26:42.262Z,99.99
2022-11-26T05:27:42.203Z,99.99
2022-11-26T05:28:42.148Z,99.99
2022-11-26T05:29:42.103Z,99.99
2022-11-26T05:30:42.055Z,99.99
2022-11-26T05:31:42.070Z,99.99
2022-11-26T05:32:41.986Z,99.99
2022-11-26T05:33:41.918Z,99.99
2022-11-26T05:34:41.892Z,99.99
2022-11-26T05:35:41.818Z,99.99
2022-11-26T05:36:41.776Z,99.99
2022-11-26T05:37:41.753Z,99.99
2022-11-26T05:38:41.710Z,99.99
2022-11-26T05:39:41.632Z,99.99
2022-11-26T05:40:41.586Z,99.99
2022-11-26T05:41:41.536Z,99.99
2022-11-26T05:42:41.496Z,99.99
2022-11-26T05:43:41.440Z,99.99
2022-11-26T05:44:41.634Z,99.99
2022-11-26T05:45:41.400Z,99.99
2022-11-26T05:46:41.295Z,99.99
2022-11-26T05:47:41.250Z,99.99
2022-11-26T05:48:41.222Z,99.99
2022-11-26T05:49:41.188Z,99.99
2022-11-26T05:50:41.117Z,99.99
2022-11-26T05:51:41.063Z,99.99
2022-11-26T05:52:41.017Z,99.99
2022-11-26T05:53:40.978Z,99.99
2022-11-26T05:54:41.071Z,99.99
2022-11-26T05:55:40.895Z,99.99
2022-11-26T05:56:40.827Z,99.99
2022-11-26T05:57:40.782Z,99.99
2022-11-26T05:58:40.735Z,99.99
2022-11-26T05:59:40.690Z,99.99
2022-11-26T06:03:47.641Z,99.99
2022-11-26T06:04:47.192Z,99.99
2022-11-26T06:05:47.414Z,99.99
2022-11-26T06:06:47.123Z,99.99
2022-11-26T06:07:47.293Z,99.99
2022-11-26T06:08:47.003Z,99.99
2022-11-26T06:09:47.224Z,99.99
2022-11-26T06:10:46.907Z,99.99
2022-11-26T06:11:47.063Z,99.99
2022-11-26T06:12:46.822Z,99.99
2022-11-26T06:13:46.841Z,99.99
2022-11-26T06:14:47.067Z,99.99
2022-11-26T06:15:47.069Z,99.99
2022-11-26T06:16:46.707Z,99.99
2022-11-26T06:17:46.672Z,99.99
2022-11-26T06:18:46.541Z,99.99
2022-11-26T06:19:46.705Z,99.99
2022-11-26T06:20:46.428Z,99.99
2022-11-26T06:21:46.494Z,99.99
2022-11-26T06:22:46.333Z,99.99
2022-11-26T06:23:54.367Z,99.99
2022-11-26T06:24:46.238Z,99.99
2022-11-26T06:25:46.321Z,99.99
2022-11-26T06:26:46.145Z,99.99
2022-11-26T06:27:46.541Z,99.99
2022-11-26T06:28:46.058Z,99.99
2022-11-26T06:29:46.139Z,99.99
2022-11-26T06:30:45.980Z,99.99
2022-11-26T06:31:46.377Z,99.99
2022-11-26T06:32:45.880Z,99.99
2022-11-26T06:33:45.967Z,99.99
2022-11-26T06:34:48.755Z,99.99
2022-11-26T06:35:45.975Z,99.99
2022-11-26T06:36:45.666Z,99.99
2022-11-26T06:37:45.788Z,99.99
2022-11-26T06:38:45.570Z,99.99
2022-11-26T06:39:45.811Z,99.99
2022-11-26T06:40:45.500Z,99.99
2022-11-26T06:41:45.614Z,99.99
2022-11-26T06:42:45.667Z,99.99
2022-11-26T06:43:45.423Z,99.99
2022-11-26T06:44:45.313Z,99.99
2022-11-26T06:45:45.483Z,99.99
2022-11-26T06:46:45.193Z,99.99
2022-11-26T06:47:45.249Z,99.99
2022-11-26T06:48:45.096Z,99.99
2022-11-26T06:49:45.469Z,99.99
2022-11-26T06:50:45.032Z,99.99
2022-11-26T06:51:45.104Z,99.99
2022-11-26T06:52:44.908Z,99.99
2022-11-26T06:53:45.085Z,99.99
2022-11-26T06:54:44.942Z,99.99
2022-11-26T06:55:44.900Z,99.99
2022-11-26T06:56:44.715Z,99.99
2022-11-26T06:57:44.911Z,99.99
2022-11-26T06:58:44.734Z,99.99
2022-11-26T06:59:44.577Z,99.99
2022-11-26T07:00:44.730Z,99.99
2022-11-26T07:01:44.523Z,99.99
2022-11-26T07:02:44.597Z,99.99
2022-11-26T07:03:44.390Z,99.99
2022-11-26T07:04:44.341Z,99.99
2022-11-26T07:05:44.558Z,99.99
2022-11-26T07:06:44.456Z,99.99
2022-11-26T07:07:44.353Z,99.99
2022-11-26T07:08:44.181Z,99.99
2022-11-26T07:09:44.388Z,99.99
2022-11-26T07:10:48.858Z,99.99
2022-11-26T07:11:44.242Z,99.99
2022-11-26T07:12:44.225Z,99.99
2022-11-26T07:13:43.918Z,99.99
2022-11-26T07:14:44.013Z,99.99
2022-11-26T07:15:44.094Z,99.99
2022-11-26T07:16:43.775Z,99.99
2022-11-26T07:17:43.769Z,99.99
2022-11-26T07:18:43.876Z,99.99
2022-11-26T07:19:43.631Z,99.99
2022-11-26T07:20:43.854Z,99.99
2022-11-26T07:21:43.539Z,99.99
2022-11-26T07:22:43.713Z,99.99
2022-11-26T07:23:43.685Z,99.99
2022-11-26T07:24:43.400Z,99.99
2022-11-26T07:25:43.484Z,99.99
2022-11-26T07:26:43.302Z,99.99
2022-11-26T07:27:43.492Z,99.99
2022-11-26T07:28:43.497Z,99.99
2022-11-26T07:29:43.158Z,99.99
2022-11-26T07:30:43.310Z,99.99
2022-11-26T07:31:43.157Z,99.99
2022-11-26T07:32:43.121Z,99.99
2022-11-26T07:33:43.176Z,99.99
2022-11-26T07:34:42.931Z,99.99
2022-11-26T07:35:42.890Z,99.99
2022-11-26T07:36:42.968Z,99.99
2022-11-26T07:37:42.791Z,99.99
2022-11-26T07:38:42.964Z,99.99
2022-11-26T07:39:42.814Z,99.99
2022-11-26T07:40:42.654Z,99.99
2022-11-26T07:41:42.626Z,99.99
2022-11-26T07:42:42.999Z,99.99
2022-11-26T07:43:42.506Z,99.99
2022-11-26T07:44:43.616Z,99.99
2022-11-26T07:45:42.443Z,99.99
2022-11-26T07:46:42.460Z,99.99
2022-11-26T07:47:42.330Z,99.99
2022-11-26T07:48:42.440Z,99.99
2022-11-26T07:49:42.220Z,99.99
2022-11-26T07:50:43.459Z,99.99
2022-11-26T07:51:42.138Z,99.99
2022-11-26T07:52:42.245Z,99.99
2022-11-26T07:53:42.294Z,99.99
2022-11-26T07:54:42.277Z,99.99
2022-11-26T07:55:41.951Z,99.99
2022-11-26T07:56:42.117Z,99.99
2022-11-26T07:57:41.854Z,99.99
2022-11-26T07:58:42.900Z,99.99
2022-11-26T07:59:41.787Z,99.99
2022-11-26T08:00:42.914Z,99.99
2022-11-26T08:01:41.756Z,99.99
2022-11-26T08:02:41.989Z,99.99
2022-11-26T08:03:41.600Z,99.99
2022-11-26T08:04:41.712Z,99.99
2022-11-26T08:05:41.773Z,99.99
2022-11-26T08:06:41.781Z,99.99
2022-11-26T08:07:41.484Z,99.99
2022-11-26T08:08:41.549Z,99.99
2022-11-26T08:09:41.400Z,99.99
2022-11-26T08:10:43.396Z,99.99
2022-11-26T08:11:41.235Z,99.99
2022-11-26T08:12:41.362Z,99.93
2022-11-26T08:13:41.116Z,99.36
2022-11-26T08:14:41.293Z,98.41
2022-11-26T08:15:41.016Z,97.93
2022-11-26T08:16:41.448Z,97.55
2022-11-26T08:17:40.925Z,97.45
2022-11-26T08:18:40.998Z,97.45
2022-11-26T08:19:40.838Z,97.17
2022-11-26T08:20:41.028Z,97.45
2022-11-26T08:21:40.742Z,97.36
2022-11-26T08:22:41.036Z,96.69
2022-11-26T08:23:40.668Z,96.79
2022-11-26T08:24:41.123Z,96.41
2022-11-26T08:25:59.274Z,96.50
2022-11-26T08:26:44.081Z,96.22
2022-11-26T08:27:40.860Z,96.31
2022-11-26T08:28:40.421Z,96.41
2022-11-26T08:29:40.372Z,96.41
2022-11-26T08:30:40.473Z,95.94
2022-11-26T08:31:45.182Z,95.94
2022-11-26T08:32:40.502Z,96.03
2022-11-26T08:33:40.214Z,96.79
2022-11-26T08:34:40.524Z,97.22
2022-11-26T08:36:05.381Z,96.98
2022-11-26T08:36:40.050Z,97.69
2022-11-26T08:37:42.399Z,98.36
2022-11-26T08:38:39.958Z,99.21
2022-11-26T08:39:40.340Z,98.45
2022-11-26T08:40:39.863Z,98.93
2022-11-26T08:41:39.817Z,99.30
2022-11-26T08:42:40.970Z,99.99
2022-11-26T08:44:05.049Z,99.99
2022-11-26T08:44:40.310Z,99.99
2022-11-26T08:45:39.627Z,99.99
2022-11-26T08:46:39.894Z,99.99
2022-11-26T08:47:39.787Z,99.99
2022-11-26T08:48:39.493Z,99.99
2022-11-26T08:49:40.376Z,99.99
2022-11-26T08:50:39.643Z,99.99
2022-11-26T08:51:40.632Z,99.99
2022-11-26T08:52:39.308Z,99.99
2022-11-26T08:53:39.263Z,99.99
2022-11-26T08:54:44.699Z,99.99
2022-11-26T08:55:59.224Z,99.99
2022-11-26T08:56:39.244Z,99.99
2022-11-26T08:57:39.234Z,99.99
2022-11-26T08:58:40.316Z,99.99
2022-11-26T08:59:39.005Z,99.99
2022-11-26T09:00:39.057Z,99.99
2022-11-26T09:01:38.931Z,99.99
2022-11-26T09:02:39.118Z,99.99
2022-11-26T09:03:38.793Z,99.99
2022-11-26T09:04:39.101Z,99.99
2022-11-26T09:05:38.696Z,99.99
2022-11-26T09:06:38.894Z,99.99
2022-11-26T09:07:38.678Z,99.99
2022-11-26T09:08:38.608Z,99.99
2022-11-26T09:09:38.516Z,99.99
2022-11-26T09:10:38.624Z,99.99
2022-11-26T09:11:40.570Z,99.99
2022-11-26T09:12:39.726Z,99.99
2022-11-26T09:13:38.540Z,99.99
2022-11-26T09:14:38.453Z,99.99
2022-11-26T09:15:38.604Z,99.99
2022-11-26T09:16:38.283Z,99.84
2022-11-26T09:17:38.140Z,99.93
2022-11-26T09:18:38.375Z,98.97
2022-11-26T09:19:38.053Z,98.88
2022-11-26T09:20:38.179Z,98.65
2022-11-26T09:21:37.958Z,98.36
2022-11-26T09:22:38.195Z,98.74
2022-11-26T09:23:38.002Z,98.46
2022-11-26T09:24:38.320Z,98.83
2022-11-26T09:25:38.010Z,99.41
2022-11-26T09:26:37.730Z,99.12
2022-11-26T09:27:37.816Z,99.46
2022-11-26T09:28:37.631Z,98.69
2022-11-26T09:29:37.597Z,98.41
2022-11-26T09:30:37.842Z,97.74
2022-11-26T09:31:49.760Z,98.13
2022-11-26T09:32:37.526Z,97.74
2022-11-26T09:33:38.693Z,97.41
2022-11-26T09:34:37.550Z,97.13
2022-11-26T09:35:37.318Z,96.36
2022-11-26T09:36:37.683Z,95.79
2022-11-26T09:37:37.227Z,95.65
2022-11-26T09:38:37.489Z,95.65
2022-11-26T09:39:37.138Z,94.98
2022-11-26T09:40:37.300Z,94.74
2022-11-26T09:41:37.047Z,94.27
2022-11-26T09:42:37.329Z,93.79
2022-11-26T09:43:36.951Z,91.03
2022-11-26T09:44:37.345Z,89.22
2022-11-26T09:45:36.917Z,89.69
2022-11-26T09:46:51.000Z,88.93
2022-11-26T09:47:36.783Z,89.07
2022-11-26T09:48:37.157Z,88.59
2022-11-26T09:49:36.691Z,88.78
2022-11-26T09:50:36.960Z,88.21
2022-11-26T09:51:36.619Z,88.12
2022-11-26T09:52:36.558Z,88.02
2022-11-26T09:53:36.777Z,88.12
2022-11-26T09:54:36.961Z,87.93
2022-11-26T09:55:36.582Z,87.64
2022-11-26T09:56:36.384Z,86.78
2022-11-26T09:57:36.602Z,85.73
2022-11-26T09:58:36.611Z,84.49
2022-11-26T09:59:36.245Z,84.49
2022-11-26T10:00:36.626Z,85.54
2022-11-26T10:01:36.219Z,85.83
2022-11-26T10:02:36.475Z,86.21
2022-11-26T10:03:36.077Z,85.64
2022-11-26T10:04:36.311Z,83.73
2022-11-26T10:05:37.282Z,83.16
2022-11-26T10:06:35.938Z,83.35
2022-11-26T10:07:36.107Z,84.34
2022-11-26T10:08:36.121Z,84.72
2022-11-26T10:09:37.099Z,84.82
2022-11-26T10:10:35.883Z,85.77
2022-11-26T10:11:35.716Z,84.44
2022-11-26T10:12:46.010Z,83.77
2022-11-26T10:13:35.629Z,83.58
2022-11-26T10:14:35.709Z,82.63
2022-11-26T10:15:35.534Z,82.40
2022-11-26T10:16:35.505Z,83.35
2022-11-26T10:17:35.723Z,82.68
2022-11-26T10:18:35.577Z,82.97
2022-11-26T10:19:35.535Z,83.44
2022-11-26T10:20:35.351Z,83.92
2022-11-26T10:21:57.493Z,84.20
2022-11-26T10:22:35.352Z,84.30
2022-11-26T10:23:35.208Z,84.78
2022-11-26T10:24:35.366Z,84.88
2022-11-26T10:25:35.099Z,84.78
2022-11-26T10:26:35.176Z,85.54
2022-11-26T10:27:35.008Z,85.54
2022-11-26T10:28:34.961Z,85.35
2022-11-26T10:29:35.400Z,85.64
2022-11-26T10:30:34.876Z,84.59
2022-11-26T10:31:35.126Z,85.06
2022-11-26T10:32:34.792Z,85.45
2022-11-26T10:33:34.917Z,85.06
2022-11-26T10:34:38.865Z,84.69
2022-11-26T10:35:34.726Z,84.11
2022-11-26T10:36:34.608Z,84.30
2022-11-26T10:37:34.745Z,85.25
2022-11-26T10:38:34.533Z,85.35
2022-11-26T10:39:34.758Z,85.83
2022-11-26T10:40:34.427Z,86.59
2022-11-26T10:41:34.578Z,86.69
2022-11-26T10:42:34.344Z,86.49
2022-11-26T10:43:34.375Z,86.88
2022-11-26T10:44:34.252Z,86.69
2022-11-26T10:45:34.397Z,86.78
2022-11-26T10:46:34.222Z,86.40
2022-11-26T10:47:34.410Z,85.64
2022-11-26T10:48:34.077Z,84.88
2022-11-26T10:49:34.223Z,85.45
2022-11-26T10:51:34.028Z,86.11
2022-11-26T10:52:34.031Z,86.69
2022-11-26T10:53:33.886Z,86.88
2022-11-26T10:54:33.844Z,87.35
2022-11-26T10:55:33.798Z,86.88
2022-11-26T10:56:33.871Z,87.16
2022-11-26T10:57:33.692Z,86.78
2022-11-26T10:58:33.633Z,86.69
2022-11-26T10:59:34.013Z,86.30
2022-11-26T11:00:33.697Z,85.58
2022-11-26T11:01:33.785Z,85.68
2022-11-26T11:02:33.497Z,85.77
2022-11-26T11:04:06.013Z,85.39
2022-11-26T11:04:33.506Z,84.82
2022-11-26T11:05:33.367Z,84.34
2022-11-26T11:06:33.316Z,85.68
2022-11-26T11:07:33.241Z,86.25
2022-11-26T11:08:33.330Z,86.16
2022-11-26T11:09:33.147Z,84.67
2022-11-26T11:10:33.098Z,83.62
2022-11-26T11:11:33.354Z,83.43
2022-11-26T11:12:33.010Z,83.77
2022-11-26T11:13:33.166Z,84.10
2022-11-26T11:14:32.931Z,84.29
2022-11-26T11:15:32.973Z,84.10
2022-11-26T11:16:33.064Z,84.29
2022-11-26T11:17:32.831Z,84.77
2022-11-26T11:18:32.996Z,84.86
2022-11-26T11:19:32.711Z,84.20
2022-11-26T11:20:33.856Z,83.34
2022-11-26T11:21:32.624Z,82.95
2022-11-26T11:22:32.629Z,82.86
2022-11-26T11:24:00.048Z,82.48
2022-11-26T11:24:32.490Z,82.57
2022-11-26T11:25:33.669Z,82.48
2022-11-26T11:26:32.397Z,83.43
2022-11-26T11:27:32.449Z,83.53
2022-11-26T11:28:32.513Z,84.58
2022-11-26T11:29:32.471Z,83.20
2022-11-26T11:30:32.225Z,84.44
2022-11-26T11:31:32.497Z,85.49
2022-11-26T11:32:32.136Z,85.87
2022-11-26T11:33:32.284Z,85.68
2022-11-26T11:34:32.070Z,86.06
2022-11-26T11:35:32.009Z,86.35
2022-11-26T11:36:32.105Z,86.35
2022-11-26T11:37:31.974Z,85.87
2022-11-26T11:38:31.922Z,86.06
2022-11-26T11:39:31.831Z,86.35
2022-11-26T11:40:32.135Z,86.73
2022-11-26T11:41:31.740Z,86.35
2022-11-26T11:42:31.738Z,85.97
2022-11-26T11:43:31.653Z,86.35
2022-11-26T11:44:31.756Z,85.97
2022-11-26T11:45:31.619Z,86.92
2022-11-26T11:46:31.764Z,87.30
2022-11-26T11:47:31.475Z,87.30
2022-11-26T11:48:31.575Z,86.63
2022-11-26T11:49:31.390Z,86.73
2022-11-26T11:50:31.421Z,87.02
2022-11-26T11:51:31.300Z,87.59
2022-11-26T11:52:31.602Z,86.35
2022-11-26T11:53:31.212Z,87.02
2022-11-26T11:54:31.217Z,87.02
2022-11-26T11:55:31.121Z,86.92
2022-11-26T11:56:31.231Z,86.92
2022-11-26T11:57:31.029Z,86.16
2022-11-26T11:58:31.241Z,86.16
2022-11-26T11:59:30.949Z,86.92
2022-11-26T12:00:31.071Z,87.21
2022-11-26T12:01:30.869Z,86.87
2022-11-26T12:02:39.421Z,86.96
2022-11-26T12:03:38.884Z,86.10
2022-11-26T12:04:39.130Z,86.20
2022-11-26T12:05:30.679Z,85.72
2022-11-26T12:06:30.702Z,84.96
2022-11-26T12:07:30.649Z,84.67
2022-11-26T12:08:30.697Z,84.58
2022-11-26T12:09:30.569Z,84.33
2022-11-26T12:10:35.285Z,85.00
2022-11-26T12:11:30.415Z,85.00
2022-11-26T12:12:30.531Z,83.38
2022-11-26T12:13:30.332Z,83.47
2022-11-26T12:14:30.338Z,83.57
2022-11-26T12:15:30.391Z,83.09
2022-11-26T12:16:30.509Z,82.90
2022-11-26T12:17:33.234Z,82.81
2022-11-26T12:18:30.159Z,82.46
2022-11-26T12:19:30.066Z,82.14
2022-11-26T12:20:30.177Z,82.71
2022-11-26T12:21:30.017Z,82.81
2022-11-26T12:22:29.991Z,82.37
2022-11-26T12:23:29.996Z,82.18
2022-11-26T12:24:29.855Z,82.14
2022-11-26T12:25:35.026Z,82.52
2022-11-26T12:26:29.755Z,82.37
2022-11-26T12:27:31.078Z,82.08
2022-11-26T12:28:29.674Z,82.14
2022-11-26T12:29:29.629Z,81.79
2022-11-26T12:30:29.586Z,81.76
2022-11-26T12:31:29.693Z,81.85
2022-11-26T12:32:29.590Z,82.14
2022-11-26T12:33:29.653Z,81.95
2022-11-26T12:34:29.429Z,81.60
2022-11-26T12:35:29.368Z,81.89
2022-11-26T12:36:29.471Z,81.89
2022-11-26T12:37:29.280Z,81.89
2022-11-26T12:38:29.282Z,80.93
2022-11-26T12:39:29.340Z,80.84
2022-11-26T12:40:29.293Z,80.65
2022-11-26T12:41:30.324Z,80.17
2022-11-26T12:42:29.067Z,79.60
2022-11-26T12:43:29.085Z,80.40
2022-11-26T12:44:28.977Z,80.21
2022-11-26T12:45:29.161Z,79.83
2022-11-26T12:46:28.889Z,79.25
2022-11-26T12:47:28.844Z,79.20
2022-11-26T12:48:28.951Z,77.86
2022-11-26T12:49:28.762Z,76.90
2022-11-26T12:50:28.958Z,76.04
2022-11-26T12:51:28.837Z,76.18
2022-11-26T12:52:28.769Z,75.98
2022-11-26T12:53:28.781Z,75.31
2022-11-26T12:54:28.544Z,74.77
2022-11-26T12:55:28.592Z,75.29
2022-11-26T12:56:28.462Z,74.37